Tunnel Hill, Illinois
Current Conditions -  °F | °C
As of 7:58 AM on Sunday 23 Nov 2014 (Local Time) from KMWA Reporting Station
Overcast Overcast  
Wind Chill: 57°   Ceiling: 2000
Heat Index: 57°   Visibility: 10mi
Dew Point: 48°   Wind: 12mph
Humidity: 72%   Direction: 170°S
Pressure: 29.77"   Gusts: NA
Location:  37.52°N, 88.84°W
Report Text: KMWA 231358Z 17010KT 10SM OVC020 14/09 A2977
Loading
Personal Weather Stations






























Interactive Weather Map New forecast layout! Learn more

10-Day Weather Forecast

Advertisements
Track Severe Weather on mobile